createdAt,value
2018-03-26T00:00:04.101Z,10.70
2018-03-26T00:02:31.684Z,11.03
2018-03-26T00:04:59.230Z,12.57
2018-03-26T00:07:26.790Z,10.63
2018-03-26T00:09:55.204Z,14.23
2018-03-26T00:12:22.780Z,11.97
2018-03-26T00:14:50.426Z,10.47
2018-03-26T00:17:18.086Z,10.90
2018-03-26T00:19:45.736Z,9.60
2018-03-26T00:22:13.326Z,11.90
2018-03-26T00:24:40.926Z,11.40
2018-03-26T00:27:08.573Z,12.07
2018-03-26T00:29:36.114Z,11.87
2018-03-26T00:32:04.452Z,9.17
2018-03-26T00:34:32.050Z,14.37
2018-03-26T00:36:59.602Z,13.13
2018-03-26T00:39:27.170Z,11.53
2018-03-26T00:41:54.720Z,9.13
2018-03-26T00:44:22.318Z,14.23
2018-03-26T00:46:49.884Z,11.17
2018-03-26T00:49:17.504Z,11.23
2018-03-26T00:51:45.052Z,12.17
2018-03-26T00:54:12.858Z,11.67
2018-03-26T00:56:40.446Z,7.80
2018-03-26T00:59:08.035Z,10.80
2018-03-26T01:01:35.642Z,8.87
2018-03-26T01:04:03.258Z,11.13
2018-03-26T01:06:31.604Z,8.77
2018-03-26T01:08:59.162Z,11.43
2018-03-26T01:11:26.720Z,8.20
2018-03-26T01:13:54.304Z,8.60
2018-03-26T01:16:21.878Z,12.77
2018-03-26T01:18:50.178Z,9.27
2018-03-26T01:21:17.764Z,9.00
2018-03-26T01:23:45.314Z,11.53
2018-03-26T01:26:13.127Z,8.97
2018-03-26T01:28:42.185Z,8.03
2018-03-26T01:31:09.760Z,10.50
2018-03-26T01:33:37.330Z,10.10
2018-03-26T01:36:04.890Z,11.73
2018-03-26T01:38:32.500Z,13.17
2018-03-26T01:41:00.048Z,11.17
2018-03-26T01:43:27.756Z,9.90
2018-03-26T01:45:56.110Z,12.70
2018-03-26T01:48:25.314Z,9.47
2018-03-26T01:50:52.864Z,9.37
2018-03-26T01:53:20.428Z,11.27
2018-03-26T01:55:47.988Z,7.73
2018-03-26T01:58:15.610Z,9.17
2018-03-26T02:00:43.203Z,14.97
2018-03-26T02:03:10.814Z,8.83
2018-03-26T02:05:39.154Z,9.20
2018-03-26T02:08:06.742Z,10.07
2018-03-26T02:10:34.336Z,16.03
2018-03-26T02:13:01.930Z,11.00
2018-03-26T02:15:29.503Z,9.30
2018-03-26T02:17:57.108Z,12.77
2018-03-26T02:20:25.471Z,10.73
2018-03-26T02:22:53.030Z,10.33
2018-03-26T02:25:20.610Z,9.77
2018-03-26T02:27:48.911Z,8.73
2018-03-26T02:30:16.483Z,9.53
2018-03-26T02:32:44.085Z,12.77
2018-03-26T02:35:12.433Z,12.77
2018-03-26T02:37:40.030Z,13.23
2018-03-26T02:40:07.590Z,12.23
2018-03-26T02:42:35.168Z,9.13
2018-03-26T02:45:02.761Z,7.53
2018-03-26T02:47:31.084Z,12.53
2018-03-26T02:49:58.636Z,11.13
2018-03-26T02:52:27.090Z,10.03
2018-03-26T02:54:54.832Z,10.97
2018-03-26T02:57:22.430Z,9.53
2018-03-26T02:59:50.298Z,11.90
2018-03-26T03:02:17.918Z,10.43
2018-03-26T03:04:45.481Z,9.00
2018-03-26T03:07:13.059Z,10.60
2018-03-26T03:09:41.391Z,12.63
2018-03-26T03:12:08.958Z,10.77
2018-03-26T03:14:36.511Z,10.23
2018-03-26T03:17:04.120Z,8.63
2018-03-26T03:19:31.699Z,11.43
2018-03-26T03:21:59.290Z,10.20
2018-03-26T03:24:26.863Z,10.67
2018-03-26T03:26:54.430Z,11.77
2018-03-26T03:29:21.980Z,12.27
2018-03-26T03:31:49.599Z,10.50
2018-03-26T03:34:17.249Z,9.33
2018-03-26T03:36:44.817Z,11.00
2018-03-26T03:39:12.383Z,10.60
2018-03-26T03:41:40.063Z,10.33
2018-03-26T03:44:07.725Z,10.93
2018-03-26T03:46:35.292Z,9.77
2018-03-26T03:49:02.859Z,17.93
2018-03-26T03:51:30.422Z,9.70
2018-03-26T03:53:58.837Z,12.03
2018-03-26T03:56:26.435Z,10.13
2018-03-26T03:58:54.070Z,10.30
2018-03-26T04:01:21.669Z,13.70
2018-03-26T04:03:50.011Z,11.57
2018-03-26T04:06:17.570Z,12.37
2018-03-26T04:08:46.969Z,12.47
2018-03-26T04:11:14.603Z,13.77
2018-03-26T04:13:42.181Z,14.43
2018-03-26T04:16:09.739Z,14.67
2018-03-26T04:18:38.357Z,14.03
2018-03-26T04:21:05.981Z,11.80
2018-03-26T04:23:34.320Z,11.87
2018-03-26T04:26:01.901Z,8.20
2018-03-26T04:28:29.477Z,11.67
2018-03-26T04:30:57.054Z,10.63
2018-03-26T04:33:25.391Z,13.03
2018-03-26T04:35:53.003Z,14.20
2018-03-26T04:38:21.898Z,13.33
2018-03-26T04:40:49.481Z,12.67
2018-03-26T04:43:17.057Z,11.30
2018-03-26T04:45:44.621Z,12.40
2018-03-26T04:48:12.968Z,14.03
2018-03-26T04:50:40.552Z,14.23
2018-03-26T04:53:08.143Z,10.23
2018-03-26T04:55:36.486Z,11.33
2018-03-26T04:58:04.958Z,14.37
2018-03-26T05:00:32.561Z,13.53
2018-03-26T05:03:00.173Z,10.83
2018-03-26T05:05:28.504Z,13.90
2018-03-26T05:07:56.116Z,9.90
2018-03-26T05:10:24.422Z,11.73
2018-03-26T05:12:52.078Z,10.13
2018-03-26T05:15:19.675Z,8.40
2018-03-26T05:17:47.248Z,13.03
2018-03-26T05:20:14.868Z,13.37
2018-03-26T05:22:42.552Z,12.77
2018-03-26T05:25:10.594Z,12.13
2018-03-26T05:27:38.254Z,11.80
2018-03-26T05:30:05.850Z,11.67
2018-03-26T05:32:33.412Z,12.70
2018-03-26T05:35:01.002Z,10.90
2018-03-26T05:37:29.350Z,10.70
2018-03-26T05:39:57.002Z,12.80
2018-03-26T05:42:25.384Z,10.13
2018-03-26T05:44:53.734Z,18.23
2018-03-26T05:47:21.372Z,17.23
2018-03-26T05:49:48.946Z,11.07
2018-03-26T05:52:16.569Z,15.83
2018-03-26T05:54:44.877Z,12.43
2018-03-26T05:57:12.460Z,14.57
2018-03-26T05:59:40.819Z,12.10
2018-03-26T06:02:08.462Z,13.27
2018-03-26T06:04:35.986Z,11.97
2018-03-26T06:07:03.600Z,17.70
2018-03-26T06:09:31.174Z,17.37
2018-03-26T06:11:59.559Z,11.13
2018-03-26T06:14:27.133Z,17.80
2018-03-26T06:17:06.639Z,14.23
2018-03-26T06:19:34.229Z,13.63
2018-03-26T06:22:01.849Z,17.43
2018-03-26T06:24:29.478Z,19.13
2018-03-26T06:26:57.035Z,12.63
2018-03-26T06:29:24.618Z,12.67
2018-03-26T06:31:52.171Z,13.93
2018-03-26T06:34:19.793Z,11.43
2018-03-26T06:39:54.303Z,10.83
2018-03-26T06:42:21.867Z,9.57
2018-03-26T06:44:49.441Z,12.97
2018-03-26T06:47:17.020Z,17.13
2018-03-26T06:49:44.603Z,12.87
2018-03-26T06:52:12.202Z,13.83
2018-03-26T06:54:39.814Z,11.00
2018-03-26T06:57:07.502Z,12.07
2018-03-26T06:59:35.061Z,10.80
2018-03-26T07:02:02.723Z,10.63
2018-03-26T07:04:30.388Z,12.30
2018-03-26T07:06:58.892Z,11.83
2018-03-26T07:09:26.508Z,14.47
2018-03-26T07:11:54.450Z,12.47
2018-03-26T07:14:23.032Z,15.13
2018-03-26T07:16:50.719Z,11.00
2018-03-26T07:19:18.345Z,13.47
2018-03-26T07:21:45.907Z,10.07
2018-03-26T07:24:15.072Z,10.67
2018-03-26T07:26:42.692Z,18.37
2018-03-26T07:29:11.045Z,14.90
2018-03-26T07:31:38.637Z,11.27
2018-03-26T07:34:07.017Z,13.67
2018-03-26T07:36:35.429Z,18.40
2018-03-26T07:39:03.033Z,19.50
2018-03-26T07:41:30.611Z,14.60
2018-03-26T07:43:59.067Z,21.53
2018-03-26T07:46:26.893Z,26.00
2018-03-26T07:48:55.229Z,18.90
2018-03-26T07:51:22.933Z,17.13
2018-03-26T07:53:50.587Z,23.47
2018-03-26T07:56:18.233Z,15.20
2018-03-26T07:58:45.843Z,16.23
2018-03-26T08:01:14.217Z,16.53
2018-03-26T08:03:42.699Z,12.10
2018-03-26T08:06:10.282Z,13.70
2018-03-26T08:08:37.946Z,16.63
2018-03-26T08:11:06.467Z,18.00
2018-03-26T08:13:34.175Z,15.00
2018-03-26T08:16:01.938Z,16.17
2018-03-26T08:18:30.353Z,17.33
2018-03-26T08:20:57.954Z,12.33
2018-03-26T08:23:25.733Z,10.43
2018-03-26T08:25:54.386Z,16.53
2018-03-26T08:28:22.748Z,14.60
2018-03-26T08:30:50.376Z,18.47
2018-03-26T08:33:17.931Z,14.07
2018-03-26T08:35:45.520Z,12.30
2018-03-26T08:38:13.193Z,11.47
2018-03-26T08:40:41.533Z,9.00
2018-03-26T08:43:09.117Z,11.03
2018-03-26T08:45:36.684Z,8.47
2018-03-26T08:48:04.245Z,10.83
2018-03-26T08:50:31.816Z,14.07
2018-03-26T08:53:00.227Z,11.87
2018-03-26T08:55:27.841Z,10.07
2018-03-26T08:57:56.190Z,10.63
2018-03-26T09:00:23.745Z,12.63
2018-03-26T09:02:51.310Z,13.50
2018-03-26T09:05:18.893Z,11.20
2018-03-26T09:07:46.450Z,11.20
2018-03-26T09:10:14.047Z,9.73
2018-03-26T09:12:41.651Z,8.30
2018-03-26T09:15:09.996Z,9.20
2018-03-26T09:17:37.550Z,8.73
2018-03-26T09:20:05.888Z,8.17
2018-03-26T09:22:33.444Z,12.80
2018-03-26T09:25:01.023Z,7.93
2018-03-26T09:27:28.617Z,11.20
2018-03-26T09:29:56.293Z,9.03
2018-03-26T09:32:23.840Z,6.83
2018-03-26T09:34:51.480Z,6.90
2018-03-26T09:37:19.036Z,13.50
2018-03-26T09:39:46.604Z,14.57
2018-03-26T09:42:14.204Z,5.90
2018-03-26T09:44:41.782Z,10.00
2018-03-26T09:47:09.559Z,9.17
2018-03-26T09:49:37.143Z,7.97
2018-03-26T09:52:05.489Z,7.63
2018-03-26T09:54:33.156Z,7.97
2018-03-26T09:57:00.717Z,7.33
2018-03-26T09:59:29.132Z,8.20
2018-03-26T10:01:57.471Z,7.03
2018-03-26T10:04:25.797Z,6.27
2018-03-26T10:06:53.516Z,12.10
2018-03-26T10:09:21.326Z,11.47
2018-03-26T10:11:48.972Z,15.27
2018-03-26T10:14:16.558Z,19.13
2018-03-26T10:16:44.125Z,16.20
2018-03-26T10:19:11.714Z,22.83
2018-03-26T10:21:39.326Z,17.03
2018-03-26T10:24:07.135Z,14.40
2018-03-26T10:26:34.723Z,21.47
2018-03-26T10:29:02.281Z,14.87
2018-03-26T10:31:29.963Z,17.40
2018-03-26T10:33:58.538Z,15.97
2018-03-26T10:36:26.083Z,11.73
2018-03-26T10:38:54.414Z,12.57
2018-03-26T10:41:21.988Z,12.23
2018-03-26T10:43:49.606Z,13.43
2018-03-26T10:46:17.213Z,10.93
2018-03-26T10:48:44.838Z,11.33
2018-03-26T10:51:13.168Z,11.47
2018-03-26T10:53:40.812Z,9.07
2018-03-26T10:56:08.364Z,14.93
2018-03-26T10:58:35.923Z,12.57
2018-03-26T11:01:03.475Z,12.47
2018-03-26T11:03:31.057Z,13.33
2018-03-26T11:05:58.743Z,10.73
2018-03-26T11:08:26.286Z,12.00
2018-03-26T11:10:53.851Z,13.87
2018-03-26T11:13:21.591Z,26.30
2018-03-26T11:15:49.185Z,21.90
2018-03-26T11:18:16.827Z,23.57
2018-03-26T11:20:44.412Z,29.23
2018-03-26T11:23:11.981Z,32.97
2018-03-26T11:25:39.544Z,30.77
2018-03-26T11:28:07.923Z,35.07
2018-03-26T11:30:36.323Z,29.57
2018-03-26T11:33:03.880Z,42.70
2018-03-26T11:35:31.465Z,36.63
2018-03-26T11:37:59.095Z,28.77
2018-03-26T11:40:26.668Z,28.53
2018-03-26T11:42:54.227Z,25.10
2018-03-26T11:45:21.764Z,27.87
2018-03-26T11:47:49.481Z,21.07
2018-03-26T11:50:17.142Z,16.20
2018-03-26T11:52:44.700Z,24.70
2018-03-26T11:55:12.244Z,29.70
2018-03-26T11:57:39.822Z,21.90
2018-03-26T12:00:07.373Z,20.93
2018-03-26T12:02:34.946Z,22.37
2018-03-26T12:05:02.544Z,17.53
2018-03-26T12:07:30.105Z,17.77
2018-03-26T12:09:57.667Z,14.20
2018-03-26T12:12:25.255Z,14.77
2018-03-26T12:14:52.893Z,13.47
2018-03-26T12:17:20.490Z,12.70
2018-03-26T12:20:00.039Z,13.33
2018-03-26T12:22:27.600Z,11.97
2018-03-26T12:25:17.211Z,14.80
2018-03-26T12:27:57.417Z,15.80
2018-03-26T12:30:28.317Z,15.03
2018-03-26T12:32:56.009Z,19.00
2018-03-26T12:35:36.248Z,15.23
2018-03-26T12:38:03.826Z,19.80
2018-03-26T12:40:43.120Z,22.67
2018-03-26T12:43:10.825Z,21.43
2018-03-26T12:45:50.299Z,18.20
2018-03-26T12:48:17.901Z,18.07
2018-03-26T12:53:51.658Z,21.07
2018-03-26T12:56:19.280Z,15.07
2018-03-26T12:58:48.416Z,16.00
2018-03-26T13:01:27.854Z,17.60
2018-03-26T13:03:55.516Z,14.20
2018-03-26T13:06:23.898Z,18.63
2018-03-26T13:08:51.604Z,17.37
2018-03-26T13:11:19.168Z,18.93
2018-03-26T13:13:46.855Z,14.33
2018-03-26T13:16:14.798Z,23.20
2018-03-26T13:18:42.391Z,26.80
2018-03-26T13:21:10.911Z,21.97
2018-03-26T13:23:38.498Z,22.27
2018-03-26T13:26:06.088Z,19.47
2018-03-26T13:28:34.461Z,17.83
2018-03-26T13:31:02.106Z,14.93
2018-03-26T13:33:29.756Z,16.03
2018-03-26T13:35:57.360Z,23.90
2018-03-26T13:38:25.355Z,15.83
2018-03-26T13:40:53.719Z,23.53
2018-03-26T13:43:21.472Z,17.53
2018-03-26T13:45:49.144Z,15.27
2018-03-26T13:48:22.836Z,12.87
2018-03-26T13:50:50.411Z,18.03
2018-03-26T13:53:18.069Z,19.70
2018-03-26T13:55:45.732Z,16.47
2018-03-26T13:58:13.464Z,19.20
2018-03-26T14:00:41.332Z,17.07
2018-03-26T14:03:08.914Z,16.83
2018-03-26T14:05:36.494Z,14.17
2018-03-26T14:08:04.070Z,12.43
2018-03-26T14:10:44.436Z,15.30
2018-03-26T14:13:24.820Z,13.60
2018-03-26T14:16:05.689Z,16.37
2018-03-26T14:18:34.031Z,11.27
2018-03-26T14:21:01.653Z,16.43
2018-03-26T14:23:29.222Z,12.13
2018-03-26T14:25:57.472Z,12.10
2018-03-26T14:28:25.193Z,10.73
2018-03-26T14:30:52.758Z,9.07
2018-03-26T14:33:20.408Z,9.63
2018-03-26T14:35:48.006Z,10.23
2018-03-26T14:38:15.775Z,14.40
2018-03-26T14:40:43.431Z,19.23
2018-03-26T14:43:11.109Z,25.93
2018-03-26T14:45:38.845Z,29.13
2018-03-26T14:48:07.178Z,36.03
2018-03-26T14:50:34.741Z,27.33
2018-03-26T14:53:02.379Z,28.10
2018-03-26T14:55:29.973Z,23.43
2018-03-26T14:57:57.537Z,27.87
2018-03-26T15:00:25.163Z,27.60
2018-03-26T15:02:52.876Z,22.67
2018-03-26T15:05:21.218Z,23.10
2018-03-26T15:07:48.838Z,29.23
2018-03-26T15:10:16.421Z,28.30
2018-03-26T15:12:43.972Z,23.40
2018-03-26T15:15:11.538Z,24.37
2018-03-26T15:17:39.127Z,20.93
2018-03-26T15:20:06.695Z,22.30
2018-03-26T15:22:34.294Z,22.50
2018-03-26T15:25:02.673Z,20.43
2018-03-26T15:27:30.287Z,18.80
2018-03-26T15:29:57.827Z,18.17
2018-03-26T15:32:25.466Z,16.80
2018-03-26T15:34:53.047Z,16.50
2018-03-26T15:37:20.633Z,12.73
2018-03-26T15:39:49.045Z,14.57
2018-03-26T15:42:16.610Z,17.87
2018-03-26T15:44:44.179Z,15.23
2018-03-26T15:47:11.761Z,18.40
2018-03-26T15:49:39.333Z,20.60
2018-03-26T15:52:06.948Z,20.97
2018-03-26T15:54:34.533Z,19.93
2018-03-26T15:57:02.853Z,15.17
2018-03-26T15:59:30.499Z,14.73
2018-03-26T16:01:57.651Z,14.17
2018-03-26T16:04:25.280Z,12.70
2018-03-26T16:06:53.711Z,9.73
2018-03-26T16:09:21.303Z,17.50
2018-03-26T16:11:49.687Z,16.50
2018-03-26T16:14:17.413Z,17.97
2018-03-26T16:16:45.005Z,13.97
2018-03-26T16:19:12.616Z,21.03
2018-03-26T16:21:40.213Z,19.20
2018-03-26T16:24:07.809Z,24.30
2018-03-26T16:26:35.408Z,17.67
2018-03-26T16:29:03.104Z,19.70
2018-03-26T16:31:30.711Z,20.43
2018-03-26T16:33:58.374Z,17.83
2018-03-26T16:36:25.961Z,22.30
2018-03-26T16:38:54.286Z,17.40
2018-03-26T16:41:33.655Z,19.67
2018-03-26T16:44:01.240Z,17.80
2018-03-26T16:46:28.798Z,23.93
2018-03-26T16:48:56.353Z,18.63
2018-03-26T16:51:23.948Z,21.20
2018-03-26T16:53:52.368Z,19.03
2018-03-26T16:56:20.874Z,27.03
2018-03-26T16:58:48.641Z,22.30
2018-03-26T17:01:16.301Z,23.50
2018-03-26T17:03:43.947Z,21.63
2018-03-26T17:06:12.302Z,19.37
2018-03-26T17:08:40.738Z,17.90
2018-03-26T17:11:08.334Z,17.03
2018-03-26T17:13:36.152Z,19.30
2018-03-26T17:16:04.328Z,15.37
2018-03-26T17:18:31.978Z,16.97
2018-03-26T17:20:59.560Z,17.60
2018-03-26T17:23:27.149Z,17.43
2018-03-26T17:25:54.747Z,22.93
2018-03-26T17:28:23.084Z,17.80
2018-03-26T17:30:50.734Z,14.13
2018-03-26T17:33:18.307Z,27.63
2018-03-26T17:35:45.885Z,19.67
2018-03-26T17:38:13.488Z,24.13
2018-03-26T17:40:41.216Z,17.60
2018-03-26T17:43:08.785Z,22.10
2018-03-26T17:45:36.438Z,19.40
2018-03-26T17:48:04.040Z,18.67
2018-03-26T17:50:31.649Z,15.10
2018-03-26T17:52:59.239Z,34.57
2018-03-26T17:55:26.878Z,28.73
2018-03-26T17:57:55.359Z,29.90
2018-03-26T18:00:22.926Z,27.00
2018-03-26T18:02:50.492Z,30.67
2018-03-26T18:05:18.077Z,22.60
2018-03-26T18:07:46.407Z,22.00
2018-03-26T18:10:14.317Z,22.00
2018-03-26T18:12:42.044Z,16.47
2018-03-26T18:15:09.633Z,22.43
2018-03-26T18:17:37.231Z,21.60
2018-03-26T18:20:04.823Z,21.27
2018-03-26T18:22:32.381Z,24.17
2018-03-26T18:25:00.029Z,26.83
2018-03-26T18:27:28.378Z,36.37
2018-03-26T18:29:57.480Z,29.43
2018-03-26T18:32:25.025Z,34.00
2018-03-26T18:34:52.594Z,31.77
2018-03-26T18:37:20.191Z,28.93
2018-03-26T18:39:47.768Z,28.17
2018-03-26T18:42:15.388Z,29.67
2018-03-26T18:44:42.954Z,30.33
2018-03-26T18:47:11.316Z,26.43
2018-03-26T18:49:39.838Z,19.57
2018-03-26T18:52:07.448Z,24.20
2018-03-26T18:54:35.030Z,19.57
2018-03-26T18:57:02.697Z,21.37
2018-03-26T18:59:30.200Z,21.70
2018-03-26T19:01:57.799Z,22.33
2018-03-26T19:04:26.312Z,18.40
2018-03-26T19:06:54.645Z,20.33
2018-03-26T19:09:22.304Z,20.97
2018-03-26T19:11:49.872Z,18.33
2018-03-26T19:14:17.516Z,19.90
2018-03-26T19:16:45.178Z,20.40
2018-03-26T19:19:13.476Z,19.27
2018-03-26T19:21:41.036Z,14.23
2018-03-26T19:24:08.635Z,17.77
2018-03-26T19:26:36.296Z,25.70
2018-03-26T19:29:03.874Z,19.03
2018-03-26T19:31:31.507Z,17.90
2018-03-26T19:33:59.899Z,19.70
2018-03-26T19:36:27.445Z,23.23
2018-03-26T19:38:55.022Z,23.93
2018-03-26T19:41:22.599Z,22.37
2018-03-26T19:43:50.222Z,24.80
2018-03-26T19:46:18.682Z,20.50
2018-03-26T19:48:46.223Z,22.97
2018-03-26T19:51:13.795Z,24.67
2018-03-26T19:53:41.371Z,20.00
2018-03-26T19:56:08.980Z,20.03
2018-03-26T19:58:36.524Z,21.73
2018-03-26T20:01:04.087Z,28.80
2018-03-26T20:03:31.651Z,25.57
2018-03-26T20:05:59.441Z,21.03
2018-03-26T20:08:27.800Z,18.50
2018-03-26T20:10:55.432Z,21.57
2018-03-26T20:13:23.044Z,19.83
2018-03-26T20:15:50.802Z,23.43
2018-03-26T20:18:18.394Z,17.23
2018-03-26T20:20:45.973Z,16.00
2018-03-26T20:23:14.311Z,18.17
2018-03-26T20:25:41.893Z,15.20
2018-03-26T20:28:09.478Z,19.70
2018-03-26T20:30:37.056Z,16.20
2018-03-26T20:33:05.380Z,20.60
2018-03-26T20:35:33.057Z,19.33
2018-03-26T20:38:00.596Z,19.63
2018-03-26T20:40:28.257Z,22.63
2018-03-26T20:42:56.039Z,24.43
2018-03-26T20:45:23.681Z,28.30
2018-03-26T20:47:51.294Z,20.27
2018-03-26T20:50:18.858Z,21.23
2018-03-26T20:52:46.420Z,17.13
2018-03-26T20:55:14.162Z,19.40
2018-03-26T20:57:41.729Z,18.93
2018-03-26T21:00:09.297Z,25.37
2018-03-26T21:02:37.779Z,22.80
2018-03-26T21:05:06.127Z,21.20
2018-03-26T21:07:33.712Z,18.53
2018-03-26T21:10:02.048Z,16.17
2018-03-26T21:12:29.640Z,18.37
2018-03-26T21:14:57.246Z,15.00
2018-03-26T21:17:25.585Z,18.47
2018-03-26T21:19:53.150Z,18.97
2018-03-26T21:22:20.710Z,15.43
2018-03-26T21:24:48.444Z,15.83
2018-03-26T21:27:16.780Z,18.90
2018-03-26T21:29:44.371Z,13.37
2018-03-26T21:32:11.961Z,14.73
2018-03-26T21:34:40.308Z,14.63
2018-03-26T21:37:07.873Z,19.47
2018-03-26T21:39:35.688Z,15.77
2018-03-26T21:42:03.251Z,17.63
2018-03-26T21:44:30.809Z,25.90
2018-03-26T21:46:58.377Z,23.30
2018-03-26T21:49:26.808Z,15.97
2018-03-26T21:51:54.369Z,16.07
2018-03-26T21:54:21.924Z,23.13
2018-03-26T21:56:49.601Z,22.40
2018-03-26T21:59:17.185Z,18.40
2018-03-26T22:01:44.893Z,19.40
2018-03-26T22:04:13.224Z,16.43
2018-03-26T22:06:40.902Z,20.93
2018-03-26T22:09:08.497Z,21.17
2018-03-26T22:11:36.078Z,15.57
2018-03-26T22:14:04.606Z,19.40
2018-03-26T22:16:32.186Z,18.87
2018-03-26T22:18:59.770Z,16.70
2018-03-26T22:21:27.450Z,17.37
2018-03-26T22:23:56.540Z,15.53
2018-03-26T22:26:24.205Z,15.60
2018-03-26T22:28:51.902Z,15.87
2018-03-26T22:31:19.522Z,18.20
2018-03-26T22:33:47.106Z,15.93
2018-03-26T22:36:14.854Z,18.07
2018-03-26T22:38:42.444Z,18.77
2018-03-26T22:41:10.062Z,16.60
2018-03-26T22:43:37.692Z,16.43
2018-03-26T22:46:05.359Z,17.80
2018-03-26T22:48:33.031Z,19.13
2018-03-26T22:51:00.636Z,17.83
2018-03-26T22:53:28.323Z,19.57
2018-03-26T22:55:55.916Z,19.13
2018-03-26T22:58:23.588Z,19.43
2018-03-26T23:00:51.156Z,19.43
2018-03-26T23:03:18.791Z,19.43
2018-03-26T23:05:46.400Z,22.10
2018-03-26T23:08:14.018Z,24.97
2018-03-26T23:10:41.622Z,21.77
2018-03-26T23:13:09.214Z,31.33
2018-03-26T23:15:36.815Z,24.70
2018-03-26T23:18:04.399Z,23.43
2018-03-26T23:20:31.986Z,21.30
2018-03-26T23:22:59.576Z,28.10
2018-03-26T23:25:27.969Z,29.73
2018-03-26T23:27:55.570Z,25.53
2018-03-26T23:30:23.191Z,24.83
2018-03-26T23:32:50.856Z,23.13
2018-03-26T23:35:18.460Z,24.33
2018-03-26T23:37:46.816Z,21.80
2018-03-26T23:40:14.580Z,24.20
2018-03-26T23:42:42.193Z,19.97
2018-03-26T23:45:09.807Z,36.83
2018-03-26T23:47:38.216Z,33.90
2018-03-26T23:50:05.827Z,30.40
2018-03-26T23:52:33.435Z,37.50
2018-03-26T23:55:01.023Z,35.07
2018-03-26T23:57:28.611Z,23.20
2018-03-26T23:59:56.179Z,24.33
